sensor_id;sensor_type;location;lat;lon;timestamp;pressure;altitude;pressure_sealevel;temperature;humidity
11678;BME280;5895;41.950;24.372;2023-11-18T00:00:47;85841.91;;;5.51;95.67
11678;BME280;5895;41.950;24.372;2023-11-18T00:03:14;85842.69;;;5.51;95.84
11678;BME280;5895;41.950;24.372;2023-11-18T00:05:41;85845.44;;;5.50;95.89
11678;BME280;5895;41.950;24.372;2023-11-18T00:08:09;85834.38;;;5.49;96.25
11678;BME280;5895;41.950;24.372;2023-11-18T00:10:37;85837.63;;;5.45;96.29
11678;BME280;5895;41.950;24.372;2023-11-18T00:13:04;85836.28;;;5.42;97.75
11678;BME280;5895;41.950;24.372;2023-11-18T00:15:31;85833.34;;;5.39;96.64
11678;BME280;5895;41.950;24.372;2023-11-18T00:18:00;85827.66;;;5.37;96.76
11678;BME280;5895;41.950;24.372;2023-11-18T00:20:27;85840.97;;;5.34;97.11
11678;BME280;5895;41.950;24.372;2023-11-18T00:22:56;85834.25;;;5.32;97.98
11678;BME280;5895;41.950;24.372;2023-11-18T00:25:25;85829.97;;;5.26;99.59
11678;BME280;5895;41.950;24.372;2023-11-18T00:27:52;85813.31;;;5.17;99.55
11678;BME280;5895;41.950;24.372;2023-11-18T00:30:20;85815.91;;;5.17;99.04
11678;BME280;5895;41.950;24.372;2023-11-18T00:32:47;85816.69;;;5.18;99.35
11678;BME280;5895;41.950;24.372;2023-11-18T00:35:14;85824.03;;;5.14;99.47
11678;BME280;5895;41.950;24.372;2023-11-18T00:37:41;85828.03;;;5.10;99.02
11678;BME280;5895;41.950;24.372;2023-11-18T00:40:09;85831.06;;;5.07;99.17
11678;BME280;5895;41.950;24.372;2023-11-18T00:42:38;85826.16;;;5.06;100.00
11678;BME280;5895;41.950;24.372;2023-11-18T00:45:06;85818.50;;;4.99;100.00
11678;BME280;5895;41.950;24.372;2023-11-18T00:47:34;85809.91;;;4.93;100.00
11678;BME280;5895;41.950;24.372;2023-11-18T00:50:01;85801.97;;;4.83;100.00
11678;BME280;5895;41.950;24.372;2023-11-18T00:52:28;85805.72;;;4.81;100.00
11678;BME280;5895;41.950;24.372;2023-11-18T00:54:55;85818.03;;;4.78;100.00
11678;BME280;5895;41.950;24.372;2023-11-18T00:57:22;85822.47;;;4.71;100.00
11678;BME280;5895;41.950;24.372;2023-11-18T00:59:51;85825.88;;;4.65;99.94
11678;BME280;5895;41.950;24.372;2023-11-18T01:02:17;85825.78;;;4.60;100.00
11678;BME280;5895;41.950;24.372;2023-11-18T01:04:44;85823.94;;;4.49;99.84
11678;BME280;5895;41.950;24.372;2023-11-18T01:07:12;85828.38;;;4.42;98.81
11678;BME280;5895;41.950;24.372;2023-11-18T01:09:39;85836.78;;;4.31;98.23
11678;BME280;5895;41.950;24.372;2023-11-18T01:12:06;85840.84;;;4.20;98.30
11678;BME280;5895;41.950;24.372;2023-11-18T01:14:36;85827.53;;;4.11;97.41
11678;BME280;5895;41.950;24.372;2023-11-18T01:17:05;85834.88;;;4.08;97.63
11678;BME280;5895;41.950;24.372;2023-11-18T01:19:32;85826.25;;;4.02;97.75
11678;BME280;5895;41.950;24.372;2023-11-18T01:22:00;85819.41;;;3.96;97.44
11678;BME280;5895;41.950;24.372;2023-11-18T01:24:30;85810.56;;;3.92;97.31
11678;BME280;5895;41.950;24.372;2023-11-18T01:26:57;85812.00;;;3.88;96.98
11678;BME280;5895;41.950;24.372;2023-11-18T01:29:25;85808.84;;;3.86;96.60
11678;BME280;5895;41.950;24.372;2023-11-18T01:31:52;85813.44;;;3.84;95.77
11678;BME280;5895;41.950;24.372;2023-11-18T01:34:22;85814.06;;;3.79;95.84
11678;BME280;5895;41.950;24.372;2023-11-18T01:36:49;85816.47;;;3.74;95.74
11678;BME280;5895;41.950;24.372;2023-11-18T01:39:16;85819.03;;;3.74;95.61
11678;BME280;5895;41.950;24.372;2023-11-18T01:41:44;85824.81;;;3.69;95.52
11678;BME280;5895;41.950;24.372;2023-11-18T01:44:12;85798.03;;;3.65;96.25
11678;BME280;5895;41.950;24.372;2023-11-18T01:46:41;85797.81;;;3.67;96.11
11678;BME280;5895;41.950;24.372;2023-11-18T01:49:11;85788.56;;;3.66;96.15
11678;BME280;5895;41.950;24.372;2023-11-18T01:51:41;85804.78;;;3.60;97.12
11678;BME280;5895;41.950;24.372;2023-11-18T01:54:12;85805.78;;;3.59;96.67
11678;BME280;5895;41.950;24.372;2023-11-18T01:56:41;85798.28;;;3.57;96.07
11678;BME280;5895;41.950;24.372;2023-11-18T01:59:09;85791.59;;;3.56;96.44
11678;BME280;5895;41.950;24.372;2023-11-18T02:01:45;85801.31;;;3.54;96.29
11678;BME280;5895;41.950;24.372;2023-11-18T02:04:13;85800.16;;;3.50;96.80
11678;BME280;5895;41.950;24.372;2023-11-18T02:06:42;85802.78;;;3.43;96.32
11678;BME280;5895;41.950;24.372;2023-11-18T02:09:10;85804.91;;;3.47;96.33
11678;BME280;5895;41.950;24.372;2023-11-18T02:11:42;85814.38;;;3.46;96.56
11678;BME280;5895;41.950;24.372;2023-11-18T02:14:13;85820.50;;;3.45;95.91
11678;BME280;5895;41.950;24.372;2023-11-18T02:16:43;85815.22;;;3.40;95.94
11678;BME280;5895;41.950;24.372;2023-11-18T02:19:19;85804.19;;;3.39;97.21
11678;BME280;5895;41.950;24.372;2023-11-18T02:21:48;85807.97;;;3.37;96.78
11678;BME280;5895;41.950;24.372;2023-11-18T02:24:29;85805.81;;;3.34;98.72
11678;BME280;5895;41.950;24.372;2023-11-18T02:27:00;85804.16;;;3.21;97.42
11678;BME280;5895;41.950;24.372;2023-11-18T02:29:33;85796.63;;;3.26;96.34
11678;BME280;5895;41.950;24.372;2023-11-18T02:32:08;85804.72;;;3.23;98.00
11678;BME280;5895;41.950;24.372;2023-11-18T02:34:41;85804.16;;;3.21;96.96
11678;BME280;5895;41.950;24.372;2023-11-18T02:37:11;85791.34;;;3.21;96.59
11678;BME280;5895;41.950;24.372;2023-11-18T02:39:40;85797.66;;;3.18;96.39
11678;BME280;5895;41.950;24.372;2023-11-18T02:42:12;85805.00;;;3.15;97.18
11678;BME280;5895;41.950;24.372;2023-11-18T02:44:40;85800.06;;;3.13;96.74
11678;BME280;5895;41.950;24.372;2023-11-18T02:47:07;85802.84;;;3.12;97.06
11678;BME280;5895;41.950;24.372;2023-11-18T02:49:36;85805.63;;;3.10;96.41
11678;BME280;5895;41.950;24.372;2023-11-18T02:52:03;85819.00;;;3.12;96.57
11678;BME280;5895;41.950;24.372;2023-11-18T02:54:30;85791.03;;;3.11;96.49
11678;BME280;5895;41.950;24.372;2023-11-18T02:56:57;85804.47;;;3.06;96.46
11678;BME280;5895;41.950;24.372;2023-11-18T02:59:27;85795.44;;;3.04;97.12
11678;BME280;5895;41.950;24.372;2023-11-18T03:01:55;85807.66;;;3.02;96.90
11678;BME280;5895;41.950;24.372;2023-11-18T03:04:22;85799.47;;;2.93;97.46
11678;BME280;5895;41.950;24.372;2023-11-18T03:06:50;85788.06;;;2.89;97.04
11678;BME280;5895;41.950;24.372;2023-11-18T03:09:17;85783.75;;;2.83;97.77
11678;BME280;5895;41.950;24.372;2023-11-18T03:11:44;85792.84;;;2.79;97.33
11678;BME280;5895;41.950;24.372;2023-11-18T03:14:11;85788.72;;;2.78;98.16
11678;BME280;5895;41.950;24.372;2023-11-18T03:16:40;85791.69;;;2.75;97.94
11678;BME280;5895;41.950;24.372;2023-11-18T03:19:07;85783.44;;;2.73;97.88
11678;BME280;5895;41.950;24.372;2023-11-18T03:21:34;85781.50;;;2.68;97.94
11678;BME280;5895;41.950;24.372;2023-11-18T03:24:02;85783.88;;;2.63;97.80
11678;BME280;5895;41.950;24.372;2023-11-18T03:26:29;85795.13;;;2.62;98.06
11678;BME280;5895;41.950;24.372;2023-11-18T03:28:57;85797.47;;;2.63;98.03
11678;BME280;5895;41.950;24.372;2023-11-18T03:31:24;85802.03;;;2.61;98.11
11678;BME280;5895;41.950;24.372;2023-11-18T03:33:53;85784.78;;;2.50;97.74
11678;BME280;5895;41.950;24.372;2023-11-18T03:36:20;85797.91;;;2.60;97.87
11678;BME280;5895;41.950;24.372;2023-11-18T03:38:47;85795.00;;;2.50;97.22
11678;BME280;5895;41.950;24.372;2023-11-18T03:41:15;85785.94;;;2.54;97.21
11678;BME280;5895;41.950;24.372;2023-11-18T03:43:42;85771.97;;;2.50;97.11
11678;BME280;5895;41.950;24.372;2023-11-18T03:46:09;85775.09;;;2.52;97.50
11678;BME280;5895;41.950;24.372;2023-11-18T03:48:36;85789.50;;;2.53;97.07
11678;BME280;5895;41.950;24.372;2023-11-18T03:51:05;85777.25;;;2.55;97.30
11678;BME280;5895;41.950;24.372;2023-11-18T03:53:32;85770.34;;;2.56;97.22
11678;BME280;5895;41.950;24.372;2023-11-18T03:56:00;85767.00;;;2.55;97.34
11678;BME280;5895;41.950;24.372;2023-11-18T03:58:27;85777.25;;;2.55;97.41
11678;BME280;5895;41.950;24.372;2023-11-18T04:00:54;85772.19;;;2.49;96.95
11678;BME280;5895;41.950;24.372;2023-11-18T04:03:23;85771.19;;;2.50;97.26
11678;BME280;5895;41.950;24.372;2023-11-18T04:05:50;85779.69;;;2.44;97.63
11678;BME280;5895;41.950;24.372;2023-11-18T04:08:18;85782.69;;;2.34;97.81
11678;BME280;5895;41.950;24.372;2023-11-18T04:10:46;85783.69;;;2.33;98.04
11678;BME280;5895;41.950;24.372;2023-11-18T04:13:13;85775.81;;;2.34;97.96
11678;BME280;5895;41.950;24.372;2023-11-18T04:15:41;85771.91;;;2.32;98.22
11678;BME280;5895;41.950;24.372;2023-11-18T04:18:08;85777.41;;;2.29;97.99
11678;BME280;5895;41.950;24.372;2023-11-18T04:20:35;85779.97;;;2.29;98.14
11678;BME280;5895;41.950;24.372;2023-11-18T04:23:02;85766.03;;;2.25;98.31
11678;BME280;5895;41.950;24.372;2023-11-18T04:25:32;85757.38;;;2.26;97.80
11678;BME280;5895;41.950;24.372;2023-11-18T04:27:59;85766.03;;;2.25;97.37
11678;BME280;5895;41.950;24.372;2023-11-18T04:30:26;85765.66;;;2.21;98.12
11678;BME280;5895;41.950;24.372;2023-11-18T04:32:53;85762.72;;;2.18;97.19
11678;BME280;5895;41.950;24.372;2023-11-18T04:35:20;85773.16;;;2.16;97.42
11678;BME280;5895;41.950;24.372;2023-11-18T04:37:48;85772.38;;;2.16;97.45
11678;BME280;5895;41.950;24.372;2023-11-18T04:40:15;85774.38;;;2.14;97.69
11678;BME280;5895;41.950;24.372;2023-11-18T04:42:43;85775.94;;;2.15;97.72
11678;BME280;5895;41.950;24.372;2023-11-18T04:45:10;85773.56;;;2.13;97.54
11678;BME280;5895;41.950;24.372;2023-11-18T04:47:37;85780.88;;;2.09;98.68
11678;BME280;5895;41.950;24.372;2023-11-18T04:50:05;85785.38;;;2.07;98.77
11678;BME280;5895;41.950;24.372;2023-11-18T04:52:33;85792.28;;;2.07;98.87
11678;BME280;5895;41.950;24.372;2023-11-18T04:55:03;85783.47;;;2.03;99.50
11678;BME280;5895;41.950;24.372;2023-11-18T04:57:31;85780.31;;;2.01;98.29
11678;BME280;5895;41.950;24.372;2023-11-18T05:00:01;85774.41;;;2.00;98.61
11678;BME280;5895;41.950;24.372;2023-11-18T05:02:35;85776.41;;;1.98;98.00
11678;BME280;5895;41.950;24.372;2023-11-18T05:05:03;85770.50;;;1.98;98.06
11678;BME280;5895;41.950;24.372;2023-11-18T05:07:32;85770.91;;;1.95;97.87
11678;BME280;5895;41.950;24.372;2023-11-18T05:10:00;85770.53;;;1.91;98.17
11678;BME280;5895;41.950;24.372;2023-11-18T05:12:28;85761.09;;;1.85;98.00
11678;BME280;5895;41.950;24.372;2023-11-18T05:14:55;85761.09;;;1.85;97.72
11678;BME280;5895;41.950;24.372;2023-11-18T05:17:24;85747.56;;;1.78;98.85
11678;BME280;5895;41.950;24.372;2023-11-18T05:19:51;85758.00;;;1.76;99.02
11678;BME280;5895;41.950;24.372;2023-11-18T05:22:19;85743.47;;;1.70;98.70
11678;BME280;5895;41.950;24.372;2023-11-18T05:24:46;85746.63;;;1.66;98.19
11678;BME280;5895;41.950;24.372;2023-11-18T05:27:13;85760.22;;;1.59;99.12
11678;BME280;5895;41.950;24.372;2023-11-18T05:29:40;85762.41;;;1.56;99.28
11678;BME280;5895;41.950;24.372;2023-11-18T05:32:08;85770.66;;;1.51;99.17
11678;BME280;5895;41.950;24.372;2023-11-18T05:34:37;85764.19;;;1.49;98.78
11678;BME280;5895;41.950;24.372;2023-11-18T05:37:04;85776.19;;;1.48;98.73
11678;BME280;5895;41.950;24.372;2023-11-18T05:39:31;85773.63;;;1.48;98.97
11678;BME280;5895;41.950;24.372;2023-11-18T05:41:59;85768.53;;;1.48;98.51
11678;BME280;5895;41.950;24.372;2023-11-18T05:44:26;85753.19;;;1.48;97.78
11678;BME280;5895;41.950;24.372;2023-11-18T05:46:56;85754.19;;;1.47;97.86
11678;BME280;5895;41.950;24.372;2023-11-18T05:49:23;85766.75;;;1.49;97.82
11678;BME280;5895;41.950;24.372;2023-11-18T05:51:52;85790.34;;;1.44;98.37
11678;BME280;5895;41.950;24.372;2023-11-18T05:54:19;85792.34;;;1.42;98.37
11678;BME280;5895;41.950;24.372;2023-11-18T05:56:46;85816.69;;;1.45;98.19
11678;BME280;5895;41.950;24.372;2023-11-18T05:59:13;85806.47;;;1.45;98.51
11678;BME280;5895;41.950;24.372;2023-11-18T06:01:40;85802.13;;;1.45;98.18
11678;BME280;5895;41.950;24.372;2023-11-18T06:04:07;85807.25;;;1.45;98.82
11678;BME280;5895;41.950;24.372;2023-11-18T06:06:36;85799.41;;;1.47;98.48
11678;BME280;5895;41.950;24.372;2023-11-18T06:09:05;85805.31;;;1.47;97.79
11678;BME280;5895;41.950;24.372;2023-11-18T06:11:35;85812.38;;;1.45;98.74
11678;BME280;5895;41.950;24.372;2023-11-18T06:14:02;85812.38;;;1.45;98.17
11678;BME280;5895;41.950;24.372;2023-11-18T06:16:30;85814.53;;;1.48;97.81
11678;BME280;5895;41.950;24.372;2023-11-18T06:18:57;85813.34;;;1.51;98.24
11678;BME280;5895;41.950;24.372;2023-11-18T06:21:26;85810.19;;;1.49;98.08
11678;BME280;5895;41.950;24.372;2023-11-18T06:23:56;85811.97;;;1.48;97.90
11678;BME280;5895;41.950;24.372;2023-11-18T06:26:25;85812.97;;;1.47;97.92
11678;BME280;5895;41.950;24.372;2023-11-18T06:28:53;85841.09;;;1.47;97.80
11678;BME280;5895;41.950;24.372;2023-11-18T06:31:20;85823.38;;;1.46;97.39
11678;BME280;5895;41.950;24.372;2023-11-18T06:33:49;85821.44;;;1.41;98.41
11678;BME280;5895;41.950;24.372;2023-11-18T06:36:18;85808.06;;;1.39;97.68
11678;BME280;5895;41.950;24.372;2023-11-18T06:38:46;85809.63;;;1.40;97.56
11678;BME280;5895;41.950;24.372;2023-11-18T06:41:16;85814.72;;;1.40;97.31
11678;BME280;5895;41.950;24.372;2023-11-18T06:43:45;85813.78;;;1.41;96.46
11678;BME280;5895;41.950;24.372;2023-11-18T06:46:23;85812.78;;;1.42;96.19
11678;BME280;5895;41.950;24.372;2023-11-18T06:48:51;85826.53;;;1.41;96.04
11678;BME280;5895;41.950;24.372;2023-11-18T06:51:20;85832.44;;;1.42;95.59
11678;BME280;5895;41.950;24.372;2023-11-18T06:53:49;85831.25;;;1.44;94.32
11678;BME280;5895;41.950;24.372;2023-11-18T06:56:16;85835.97;;;1.41;93.93
11678;BME280;5895;41.950;24.372;2023-11-18T06:58:45;85833.22;;;1.42;94.33
11678;BME280;5895;41.950;24.372;2023-11-18T07:01:12;85837.91;;;1.45;94.41
11678;BME280;5895;41.950;24.372;2023-11-18T07:03:40;85833.19;;;1.49;93.82
11678;BME280;5895;41.950;24.372;2023-11-18T07:06:08;85820.03;;;1.52;93.34
11678;BME280;5895;41.950;24.372;2023-11-18T07:08:35;85822.38;;;1.53;92.28
11678;BME280;5895;41.950;24.372;2023-11-18T07:11:03;85814.31;;;1.50;92.03
11678;BME280;5895;41.950;24.372;2023-11-18T07:13:31;85822.78;;;1.44;92.95
11678;BME280;5895;41.950;24.372;2023-11-18T07:16:01;85810.41;;;1.47;92.64
11678;BME280;5895;41.950;24.372;2023-11-18T07:18:29;85818.25;;;1.52;92.26
11678;BME280;5895;41.950;24.372;2023-11-18T07:20:58;85811.16;;;1.54;91.43
11678;BME280;5895;41.950;24.372;2023-11-18T07:23:25;85812.34;;;1.58;91.34
11678;BME280;5895;41.950;24.372;2023-11-18T07:25:53;85805.66;;;1.57;90.25
11678;BME280;5895;41.950;24.372;2023-11-18T07:28:20;85798.56;;;1.59;90.37
11678;BME280;5895;41.950;24.372;2023-11-18T07:30:47;85799.34;;;1.67;89.90
11678;BME280;5895;41.950;24.372;2023-11-18T07:33:16;85795.41;;;1.71;89.43
11678;BME280;5895;41.950;24.372;2023-11-18T07:35:46;85794.97;;;1.80;89.27
11678;BME280;5895;41.950;24.372;2023-11-18T07:38:14;85796.50;;;1.88;88.80
11678;BME280;5895;41.950;24.372;2023-11-18T07:40:41;85794.69;;;1.95;88.51
11678;BME280;5895;41.950;24.372;2023-11-18T07:43:11;85780.72;;;1.98;87.23
11678;BME280;5895;41.950;24.372;2023-11-18T07:45:38;85780.28;;;2.07;86.84
11678;BME280;5895;41.950;24.372;2023-11-18T07:48:06;85777.50;;;2.16;86.52
11678;BME280;5895;41.950;24.372;2023-11-18T07:50:35;85770.94;;;2.26;85.55
11678;BME280;5895;41.950;24.372;2023-11-18T07:53:03;85780.56;;;2.31;84.85
11678;BME280;5895;41.950;24.372;2023-11-18T07:55:32;85784.59;;;2.45;84.63
11678;BME280;5895;41.950;24.372;2023-11-18T07:57:59;85783.59;;;2.53;83.86
11678;BME280;5895;41.950;24.372;2023-11-18T08:00:27;85781.81;;;2.53;84.07
11678;BME280;5895;41.950;24.372;2023-11-18T08:02:56;85785.56;;;2.51;84.61
11678;BME280;5895;41.950;24.372;2023-11-18T08:05:25;85791.13;;;2.41;84.97
11678;BME280;5895;41.950;24.372;2023-11-18T08:07:55;85781.97;;;2.27;85.04
11678;BME280;5895;41.950;24.372;2023-11-18T08:10:22;85787.16;;;2.14;85.49
11678;BME280;5895;41.950;24.372;2023-11-18T08:12:50;85787.94;;;2.07;85.71
11678;BME280;5895;41.950;24.372;2023-11-18T08:15:17;85789.38;;;2.03;85.87
11678;BME280;5895;41.950;24.372;2023-11-18T08:17:45;85795.63;;;2.07;85.70
11678;BME280;5895;41.950;24.372;2023-11-18T08:20:12;85793.28;;;2.06;85.57
11678;BME280;5895;41.950;24.372;2023-11-18T08:22:40;85792.94;;;1.96;85.69
11678;BME280;5895;41.950;24.372;2023-11-18T08:25:11;85794.13;;;1.93;85.67
11678;BME280;5895;41.950;24.372;2023-11-18T08:27:39;85793.53;;;1.98;85.65
11678;BME280;5895;41.950;24.372;2023-11-18T08:30:07;85805.47;;;2.10;85.15
11678;BME280;5895;41.950;24.372;2023-11-18T08:32:37;85800.69;;;2.21;84.82
11678;BME280;5895;41.950;24.372;2023-11-18T08:35:05;85806.81;;;2.51;83.87
11678;BME280;5895;41.950;24.372;2023-11-18T08:37:34;85801.06;;;2.87;82.29
11678;BME280;5895;41.950;24.372;2023-11-18T08:40:02;85801.22;;;3.17;80.80
11678;BME280;5895;41.950;24.372;2023-11-18T08:42:30;85781.16;;;3.76;78.35
11678;BME280;5895;41.950;24.372;2023-11-18T08:44:59;85786.16;;;4.38;75.60
11678;BME280;5895;41.950;24.372;2023-11-18T08:47:26;85784.91;;;4.70;73.39
11678;BME280;5895;41.950;24.372;2023-11-18T08:49:54;85785.56;;;4.96;71.88
11678;BME280;5895;41.950;24.372;2023-11-18T08:52:21;85784.69;;;5.02;71.86
11678;BME280;5895;41.950;24.372;2023-11-18T08:54:51;85789.56;;;4.92;71.69
11678;BME280;5895;41.950;24.372;2023-11-18T08:57:45;85778.06;;;4.53;73.11
11678;BME280;5895;41.950;24.372;2023-11-18T09:00:23;85774.34;;;4.18;74.20
11678;BME280;5895;41.950;24.372;2023-11-18T09:03:07;85768.41;;;3.88;75.56
11678;BME280;5895;41.950;24.372;2023-11-18T09:05:43;85764.88;;;3.64;76.24
11678;BME280;5895;41.950;24.372;2023-11-18T09:08:23;85771.38;;;3.48;77.30
11678;BME280;5895;41.950;24.372;2023-11-18T09:10:50;85760.81;;;3.38;77.12
11678;BME280;5895;41.950;24.372;2023-11-18T09:13:22;85754.41;;;3.47;77.54
11678;BME280;5895;41.950;24.372;2023-11-18T09:15:51;85745.16;;;3.46;77.18
11678;BME280;5895;41.950;24.372;2023-11-18T09:18:18;85766.03;;;3.31;77.21
11678;BME280;5895;41.950;24.372;2023-11-18T09:20:47;85750.69;;;3.25;77.54
11678;BME280;5895;41.950;24.372;2023-11-18T09:23:14;85767.66;;;3.26;77.80
11678;BME280;5895;41.950;24.372;2023-11-18T09:25:42;85776.03;;;3.14;77.61
11678;BME280;5895;41.950;24.372;2023-11-18T09:28:12;85757.78;;;3.04;77.54
11678;BME280;5895;41.950;24.372;2023-11-18T09:30:42;85764.88;;;3.02;77.49
11678;BME280;5895;41.950;24.372;2023-11-18T09:33:17;85761.13;;;3.05;77.51
11678;BME280;5895;41.950;24.372;2023-11-18T09:35:53;85763.91;;;3.03;77.52
11678;BME280;5895;41.950;24.372;2023-11-18T09:38:27;85758.03;;;2.96;77.69
11678;BME280;5895;41.950;24.372;2023-11-18T09:40:55;85762.72;;;2.81;78.32
11678;BME280;5895;41.950;24.372;2023-11-18T09:43:24;85759.81;;;2.71;78.52
11678;BME280;5895;41.950;24.372;2023-11-18T09:45:56;85756.88;;;2.67;79.11
11678;BME280;5895;41.950;24.372;2023-11-18T09:48:23;85763.06;;;2.59;78.19
11678;BME280;5895;41.950;24.372;2023-11-18T09:50:55;85755.78;;;2.56;78.50
11678;BME280;5895;41.950;24.372;2023-11-18T09:53:25;85750.31;;;2.46;78.54
11678;BME280;5895;41.950;24.372;2023-11-18T09:56:00;85754.97;;;2.31;79.01
11678;BME280;5895;41.950;24.372;2023-11-18T09:58:37;85766.84;;;2.19;79.65
11678;BME280;5895;41.950;24.372;2023-11-18T10:01:09;85755.50;;;2.01;79.87
11678;BME280;5895;41.950;24.372;2023-11-18T10:03:40;85757.16;;;1.89;80.26
11678;BME280;5895;41.950;24.372;2023-11-18T10:06:09;85757.22;;;1.76;80.15
11678;BME280;5895;41.950;24.372;2023-11-18T10:08:37;85761.38;;;1.70;81.52
11678;BME280;5895;41.950;24.372;2023-11-18T10:11:05;85759.25;;;1.61;80.78
11678;BME280;5895;41.950;24.372;2023-11-18T10:13:35;85762.03;;;1.52;81.55
11678;BME280;5895;41.950;24.372;2023-11-18T10:16:08;85765.97;;;1.48;81.61
11678;BME280;5895;41.950;24.372;2023-11-18T10:18:38;85763.22;;;1.43;81.71
11678;BME280;5895;41.950;24.372;2023-11-18T10:21:14;85770.72;;;1.38;81.29
11678;BME280;5895;41.950;24.372;2023-11-18T10:23:58;85773.69;;;1.35;83.49
11678;BME280;5895;41.950;24.372;2023-11-18T10:26:27;85768.75;;;1.33;81.85
11678;BME280;5895;41.950;24.372;2023-11-18T10:28:54;85770.75;;;1.25;81.19
11678;BME280;5895;41.950;24.372;2023-11-18T10:31:22;85768.78;;;1.20;81.60
11678;BME280;5895;41.950;24.372;2023-11-18T10:33:50;85752.09;;;1.18;81.46
11678;BME280;5895;41.950;24.372;2023-11-18T10:36:18;85763.28;;;1.17;81.99
11678;BME280;5895;41.950;24.372;2023-11-18T10:38:49;85746.00;;;1.12;81.87
11678;BME280;5895;41.950;24.372;2023-11-18T10:41:18;85741.53;;;1.08;82.40
11678;BME280;5895;41.950;24.372;2023-11-18T10:43:46;85742.91;;;1.03;81.44
11678;BME280;5895;41.950;24.372;2023-11-18T10:46:14;85740.72;;;1.00;82.39
11678;BME280;5895;41.950;24.372;2023-11-18T10:48:44;85765.91;;;0.97;82.57
11678;BME280;5895;41.950;24.372;2023-11-18T10:51:13;85760.59;;;0.92;82.71
11678;BME280;5895;41.950;24.372;2023-11-18T10:53:42;85751.56;;;0.89;82.47
11678;BME280;5895;41.950;24.372;2023-11-18T10:56:19;85738.22;;;0.81;82.26
11678;BME280;5895;41.950;24.372;2023-11-18T10:58:52;85741.75;;;0.79;82.36
11678;BME280;5895;41.950;24.372;2023-11-18T11:01:28;85748.22;;;0.82;82.93
11678;BME280;5895;41.950;24.372;2023-11-18T11:03:56;85740.56;;;0.82;82.84
11678;BME280;5895;41.950;24.372;2023-11-18T11:06:24;85740.38;;;0.77;82.17
11678;BME280;5895;41.950;24.372;2023-11-18T11:08:51;85747.66;;;0.73;82.37
11678;BME280;5895;41.950;24.372;2023-11-18T11:11:20;85735.50;;;0.69;82.16
11678;BME280;5895;41.950;24.372;2023-11-18T11:13:50;85737.84;;;0.64;82.28
11678;BME280;5895;41.950;24.372;2023-11-18T11:16:23;85741.97;;;0.65;82.05
11678;BME280;5895;41.950;24.372;2023-11-18T13:03:41;85811.97;;;-0.04;84.10
11678;BME280;5895;41.950;24.372;2023-11-18T13:06:09;85811.56;;;-0.01;84.28
11678;BME280;5895;41.950;24.372;2023-11-18T13:08:37;85825.69;;;0.02;84.10
11678;BME280;5895;41.950;24.372;2023-11-18T17:10:05;85952.31;;;-0.75;83.80
11678;BME280;5895;41.950;24.372;2023-11-18T17:12:37;85951.09;;;-0.79;82.93
11678;BME280;5895;41.950;24.372;2023-11-18T17:15:05;85962.25;;;-0.80;82.88
11678;BME280;5895;41.950;24.372;2023-11-18T17:17:33;85952.69;;;-0.78;82.83
11678;BME280;5895;41.950;24.372;2023-11-18T17:20:00;85939.00;;;-0.77;82.51
11678;BME280;5895;41.950;24.372;2023-11-18T17:22:34;85928.81;;;-0.77;81.72
11678;BME280;5895;41.950;24.372;2023-11-18T19:25:17;86039.53;;;-1.30;86.40
11678;BME280;5895;41.950;24.372;2023-11-18T19:27:44;86047.69;;;-1.35;86.93
11678;BME280;5895;41.950;24.372;2023-11-18T19:30:12;86029.28;;;-1.37;86.89
11678;BME280;5895;41.950;24.372;2023-11-18T19:32:39;86033.59;;;-1.38;86.32
11678;BME280;5895;41.950;24.372;2023-11-18T19:35:07;86042.97;;;-1.38;87.09
11678;BME280;5895;41.950;24.372;2023-11-18T19:37:34;86037.44;;;-1.42;87.17
11678;BME280;5895;41.950;24.372;2023-11-18T19:40:01;86043.06;;;-1.46;87.26
11678;BME280;5895;41.950;24.372;2023-11-18T19:42:32;86013.97;;;-1.44;87.66
11678;BME280;5895;41.950;24.372;2023-11-18T19:44:59;86045.63;;;-1.46;87.61
11678;BME280;5895;41.950;24.372;2023-11-18T19:47:26;86052.31;;;-1.45;87.78
11678;BME280;5895;41.950;24.372;2023-11-18T19:49:55;86045.63;;;-1.46;86.88
11678;BME280;5895;41.950;24.372;2023-11-18T19:52:23;86032.75;;;-1.45;87.48
11678;BME280;5895;41.950;24.372;2023-11-18T19:54:50;86041.34;;;-1.46;88.00
11678;BME280;5895;41.950;24.372;2023-11-18T19:57:17;86046.44;;;-1.46;87.65
11678;BME280;5895;41.950;24.372;2023-11-18T19:59:45;86036.06;;;-1.44;87.23
11678;BME280;5895;41.950;24.372;2023-11-18T20:02:14;86041.16;;;-1.44;87.92
11678;BME280;5895;41.950;24.372;2023-11-18T20:04:41;86024.91;;;-1.43;87.67
11678;BME280;5895;41.950;24.372;2023-11-18T20:07:09;86036.66;;;-1.42;87.99
11678;BME280;5895;41.950;24.372;2023-11-18T20:09:36;86026.50;;;-1.42;87.55
11678;BME280;5895;41.950;24.372;2023-11-18T20:12:03;86044.31;;;-1.42;87.52
11678;BME280;5895;41.950;24.372;2023-11-18T20:14:31;86045.28;;;-1.43;87.27
11678;BME280;5895;41.950;24.372;2023-11-18T20:17:00;86052.72;;;-1.42;87.77
11678;BME280;5895;41.950;24.372;2023-11-18T20:19:27;86049.03;;;-1.39;87.42
11678;BME280;5895;41.950;24.372;2023-11-18T20:21:54;86044.13;;;-1.41;87.22
11678;BME280;5895;41.950;24.372;2023-11-18T20:24:21;86062.09;;;-1.42;87.58
11678;BME280;5895;41.950;24.372;2023-11-18T20:26:49;86071.06;;;-1.46;87.55
11678;BME280;5895;41.950;24.372;2023-11-18T20:29:16;86058.53;;;-1.48;88.00
11678;BME280;5895;41.950;24.372;2023-11-18T20:31:43;86049.13;;;-1.47;87.75
11678;BME280;5895;41.950;24.372;2023-11-18T20:34:12;86053.09;;;-1.45;88.03
11678;BME280;5895;41.950;24.372;2023-11-18T20:36:39;86074.22;;;-1.44;87.90
11678;BME280;5895;41.950;24.372;2023-11-18T20:39:07;86056.59;;;-1.46;88.11
11678;BME280;5895;41.950;24.372;2023-11-18T20:41:35;86054.41;;;-1.49;87.88
11678;BME280;5895;41.950;24.372;2023-11-18T20:44:02;86049.13;;;-1.47;87.60
11678;BME280;5895;41.950;24.372;2023-11-18T20:46:29;86049.13;;;-1.47;87.89
11678;BME280;5895;41.950;24.372;2023-11-18T20:48:56;86049.91;;;-1.47;87.82
11678;BME280;5895;41.950;24.372;2023-11-18T20:51:25;86041.16;;;-1.44;87.80
11678;BME280;5895;41.950;24.372;2023-11-18T20:53:52;86048.78;;;-1.44;87.42
11678;BME280;5895;41.950;24.372;2023-11-18T20:56:19;86064.25;;;-1.46;87.90
11678;BME280;5895;41.950;24.372;2023-11-18T20:58:47;86072.47;;;-1.44;88.03
11678;BME280;5895;41.950;24.372;2023-11-18T21:01:15;86069.13;;;-1.44;87.53